createdAt,value
2018-03-04T00:00:10.888Z,0
2018-03-04T00:01:10.600Z,0
2018-03-04T00:02:10.571Z,0
2018-03-04T00:03:10.826Z,0
2018-03-04T00:04:10.749Z,0
2018-03-04T00:05:10.466Z,0
2018-03-04T00:06:10.682Z,0
2018-03-04T00:07:10.404Z,0
2018-03-04T00:08:10.610Z,0
2018-03-04T00:09:10.325Z,0
2018-03-04T00:10:10.547Z,0
2018-03-04T00:11:10.008Z,0
2018-03-04T00:12:10.477Z,0
2018-03-04T00:13:10.205Z,0
2018-03-04T00:14:10.164Z,0
2018-03-04T00:15:10.374Z,0
2018-03-04T00:16:09.837Z,0
2018-03-04T00:17:10.052Z,0
2018-03-04T00:18:10.270Z,0
2018-03-04T00:19:09.988Z,0
2018-03-04T00:20:09.954Z,0
2018-03-04T00:21:09.914Z,0
2018-03-04T00:22:09.879Z,0
2018-03-04T00:23:09.849Z,0
2018-03-04T00:24:09.817Z,0
2018-03-04T00:25:10.032Z,0
2018-03-04T00:26:09.789Z,0
2018-03-04T00:27:09.971Z,0
2018-03-04T00:28:09.678Z,0
2018-03-04T00:29:09.388Z,0
2018-03-04T00:30:09.358Z,0
2018-03-04T00:31:09.323Z,0
2018-03-04T00:32:09.542Z,0
2018-03-04T00:33:09.508Z,0
2018-03-04T00:34:09.470Z,0
2018-03-04T00:35:09.692Z,0
2018-03-04T00:36:09.652Z,0
2018-03-04T00:37:09.368Z,0
2018-03-04T00:38:09.584Z,0
2018-03-04T00:39:09.556Z,0
2018-03-04T00:40:09.522Z,0
2018-03-04T00:41:09.479Z,0
2018-03-04T00:42:09.450Z,0
2018-03-04T00:43:09.168Z,0
2018-03-04T00:44:09.386Z,0
2018-03-04T00:45:09.356Z,0
2018-03-04T00:46:09.314Z,0
2018-03-04T00:47:09.055Z,0
2018-03-04T00:48:09.000Z,0
2018-03-04T00:49:08.964Z,0
2018-03-04T00:50:08.929Z,0
2018-03-04T00:51:09.137Z,0
2018-03-04T00:52:08.860Z,0
2018-03-04T00:53:09.074Z,0
2018-03-04T00:54:08.796Z,0
2018-03-04T00:55:09.009Z,0
2018-03-04T00:56:08.727Z,0
2018-03-04T00:57:08.949Z,0
2018-03-04T00:58:08.904Z,0
2018-03-04T00:59:08.873Z,0
2018-03-04T01:00:08.838Z,0
2018-03-04T01:01:08.555Z,0
2018-03-04T01:02:08.273Z,0
2018-03-04T01:03:08.752Z,0
2018-03-04T01:04:08.701Z,0
2018-03-04T01:05:08.667Z,0
2018-03-04T01:06:08.637Z,0
2018-03-04T01:07:08.663Z,0
2018-03-04T01:08:08.324Z,0
2018-03-04T01:09:08.038Z,0
2018-03-04T01:10:08.514Z,0
2018-03-04T01:11:08.218Z,0
2018-03-04T01:12:07.940Z,0
2018-03-04T01:13:08.149Z,0
2018-03-04T01:14:08.365Z,0
2018-03-04T01:15:07.838Z,0
2018-03-04T01:16:08.055Z,0
2018-03-04T01:17:08.017Z,0
2018-03-04T01:18:07.996Z,0
2018-03-04T01:19:07.949Z,0
2018-03-04T01:20:07.921Z,0
2018-03-04T01:21:07.881Z,0
2018-03-04T01:22:08.095Z,0
2018-03-04T01:23:08.066Z,0
2018-03-04T01:24:07.782Z,0
2018-03-04T01:25:07.754Z,0
2018-03-04T01:26:07.960Z,0
2018-03-04T01:27:07.944Z,0
2018-03-04T01:28:07.996Z,0
2018-03-04T01:29:07.869Z,0
2018-03-04T01:30:07.333Z,0
2018-03-04T01:31:07.549Z,0
2018-03-04T01:32:07.513Z,0
2018-03-04T01:33:07.488Z,0
2018-03-04T01:34:07.465Z,0
2018-03-04T01:35:07.419Z,0
2018-03-04T01:36:07.135Z,0
2018-03-04T01:37:07.598Z,0
2018-03-04T01:38:07.563Z,0
2018-03-04T01:39:07.037Z,0
2018-03-04T01:40:07.251Z,0
2018-03-04T01:41:07.314Z,0
2018-03-04T01:42:06.938Z,0
2018-03-04T01:43:07.148Z,0
2018-03-04T01:44:07.116Z,0
2018-03-04T01:45:07.092Z,0
2018-03-04T01:46:07.057Z,0
2018-03-04T01:47:07.268Z,0
2018-03-04T01:48:07.020Z,0
2018-03-04T01:49:06.704Z,0
2018-03-04T01:50:07.167Z,0
2018-03-04T01:51:06.636Z,0
2018-03-04T01:52:06.856Z,0
2018-03-04T01:53:06.820Z,0
2018-03-04T01:54:07.076Z,0
2018-03-04T01:55:07.010Z,0
2018-03-04T01:56:06.723Z,0
2018-03-04T01:57:06.936Z,0
2018-03-04T01:58:06.903Z,0
2018-03-04T01:59:06.872Z,0
2018-03-04T02:00:06.867Z,0
2018-03-04T02:01:06.806Z,0
2018-03-04T02:02:06.773Z,0
2018-03-04T02:03:06.743Z,0
2018-03-04T02:04:06.710Z,0
2018-03-04T02:05:06.671Z,0
2018-03-04T02:06:06.657Z,0
2018-03-04T02:07:06.612Z,0
2018-03-04T02:08:06.332Z,0
2018-03-04T02:09:06.536Z,0
2018-03-04T02:10:06.511Z,0
2018-03-04T02:11:06.475Z,0
2018-03-04T02:12:06.211Z,0
2018-03-04T02:13:05.908Z,0
2018-03-04T02:14:06.144Z,0
2018-03-04T02:15:06.346Z,0
2018-03-04T02:16:05.812Z,0
2018-03-04T02:17:06.277Z,0
2018-03-04T02:18:06.241Z,0
2018-03-04T02:19:05.966Z,0
2018-03-04T02:20:05.932Z,0
2018-03-04T02:21:06.153Z,0
2018-03-04T02:22:06.110Z,0
2018-03-04T02:23:06.086Z,0
2018-03-04T02:24:06.048Z,0
2018-03-04T02:25:05.771Z,0
2018-03-04T02:26:05.982Z,0
2018-03-04T02:27:05.698Z,0
2018-03-04T02:28:05.675Z,0
2018-03-04T02:29:05.638Z,0
2018-03-04T02:30:05.804Z,0
2018-03-04T02:31:05.589Z,0
2018-03-04T02:32:05.809Z,0
2018-03-04T02:33:05.770Z,0
2018-03-04T02:34:05.725Z,0
2018-03-04T02:35:05.702Z,0
2018-03-04T02:36:05.406Z,0
2018-03-04T02:37:05.376Z,0
2018-03-04T02:38:05.614Z,0
2018-03-04T02:39:05.563Z,0
2018-03-04T02:40:05.544Z,0
2018-03-04T02:41:05.508Z,0
2018-03-04T02:42:04.976Z,0
2018-03-04T02:43:05.430Z,0
2018-03-04T02:44:05.401Z,0
2018-03-04T02:45:05.374Z,0
2018-03-04T02:46:05.333Z,0
2018-03-04T02:47:05.307Z,0
2018-03-04T02:48:05.273Z,0
2018-03-04T02:49:04.986Z,0
2018-03-04T02:50:04.708Z,0
2018-03-04T02:51:04.939Z,0
2018-03-04T02:52:04.901Z,0
2018-03-04T02:53:04.855Z,0
2018-03-04T02:54:04.833Z,0
2018-03-04T02:55:04.798Z,0
2018-03-04T02:56:05.004Z,0
2018-03-04T02:57:04.989Z,0
2018-03-04T02:58:04.703Z,0
2018-03-04T02:59:04.660Z,0
2018-03-04T03:00:04.633Z,0
2018-03-04T03:01:05.086Z,0
2018-03-04T03:02:04.743Z,0
2018-03-04T03:03:05.318Z,0
2018-03-04T03:04:04.503Z,0
2018-03-04T03:05:04.485Z,0
2018-03-04T03:06:04.697Z,0
2018-03-04T03:07:04.404Z,0
2018-03-04T03:08:04.119Z,0
2018-03-04T03:09:04.587Z,0
2018-03-04T03:10:04.307Z,0
2018-03-04T03:11:04.519Z,0
2018-03-04T03:12:04.590Z,0
2018-03-04T03:13:04.452Z,0
2018-03-04T03:14:04.420Z,0
2018-03-04T03:15:04.395Z,0
2018-03-04T03:16:04.362Z,0
2018-03-04T03:17:04.327Z,0
2018-03-04T03:18:04.298Z,0
2018-03-04T03:19:04.025Z,0
2018-03-04T03:20:04.230Z,0
2018-03-04T03:21:03.952Z,0
2018-03-04T03:22:04.166Z,0
2018-03-04T03:23:03.885Z,0
2018-03-04T03:24:04.105Z,0
2018-03-04T03:25:04.081Z,0
2018-03-04T03:26:04.048Z,0
2018-03-04T03:27:03.766Z,0
2018-03-04T03:28:03.981Z,0
2018-03-04T03:29:03.946Z,0
2018-03-04T03:30:03.929Z,0
2018-03-04T03:31:03.772Z,0
2018-03-04T03:32:03.848Z,0
2018-03-04T03:33:03.818Z,0
2018-03-04T03:34:03.794Z,0
2018-03-04T03:35:03.768Z,0
2018-03-04T03:36:03.725Z,0
2018-03-04T03:37:03.692Z,0
2018-03-04T03:38:03.413Z,0
2018-03-04T03:39:03.380Z,0
2018-03-04T03:40:03.350Z,0
2018-03-04T03:41:03.317Z,0
2018-03-04T03:42:03.279Z,0
2018-03-04T03:43:03.253Z,0
2018-03-04T03:44:03.221Z,0
2018-03-04T03:45:03.438Z,0
2018-03-04T03:46:03.402Z,0
2018-03-04T03:47:03.372Z,0
2018-03-04T03:48:03.345Z,0
2018-03-04T03:49:03.308Z,0
2018-03-04T03:50:03.279Z,0
2018-03-04T03:51:02.995Z,0
2018-03-04T03:52:03.228Z,0
2018-03-04T03:53:03.185Z,0
2018-03-04T03:54:02.903Z,0
2018-03-04T03:55:03.121Z,0
2018-03-04T03:56:03.095Z,0
2018-03-04T03:57:03.061Z,0
2018-03-04T03:58:03.027Z,0
2018-03-04T03:59:02.994Z,0
2018-03-04T04:00:02.741Z,0
2018-03-04T04:01:02.946Z,0
2018-03-04T04:02:02.648Z,0
2018-03-04T04:03:02.613Z,0
2018-03-04T04:04:02.334Z,0
2018-03-04T04:05:02.550Z,0
2018-03-04T04:06:02.269Z,0
2018-03-04T04:07:02.237Z,0
2018-03-04T04:08:02.699Z,0
2018-03-04T04:09:02.172Z,0
2018-03-04T04:10:02.638Z,0
2018-03-04T04:11:02.358Z,0
2018-03-04T04:12:02.571Z,0
2018-03-04T04:13:02.293Z,0
2018-03-04T04:14:02.509Z,0
2018-03-04T04:15:02.230Z,0
2018-03-04T04:16:02.198Z,0
2018-03-04T04:17:02.167Z,0
2018-03-04T04:18:02.129Z,0
2018-03-04T04:19:02.355Z,0
2018-03-04T04:20:02.313Z,0
2018-03-04T04:21:01.789Z,0
2018-03-04T04:22:02.013Z,0
2018-03-04T04:23:01.981Z,0
2018-03-04T04:24:02.187Z,0
2018-03-04T04:25:02.161Z,0
2018-03-04T04:26:02.123Z,0
2018-03-04T04:27:02.089Z,0
2018-03-04T04:28:01.813Z,0
2018-03-04T04:29:02.029Z,0
2018-03-04T04:30:01.753Z,0
2018-03-04T04:31:01.966Z,0
2018-03-04T04:32:01.679Z,0
2018-03-04T04:33:01.654Z,0
2018-03-04T04:34:01.620Z,0
2018-03-04T04:35:01.589Z,0
2018-03-04T04:36:01.806Z,0
2018-03-04T04:37:01.532Z,0
2018-03-04T04:38:01.743Z,0
2018-03-04T04:39:01.719Z,0
2018-03-04T04:40:01.184Z,0
2018-03-04T04:41:01.398Z,0
2018-03-04T04:42:01.631Z,0
2018-03-04T04:43:01.337Z,0
2018-03-04T04:44:01.558Z,0
2018-03-04T04:45:01.520Z,0
2018-03-04T04:46:01.491Z,0
2018-03-04T04:47:01.460Z,0
2018-03-04T04:48:01.428Z,0
2018-03-04T04:49:01.144Z,0
2018-03-04T04:50:01.362Z,0
2018-03-04T04:51:01.330Z,0
2018-03-04T04:52:01.295Z,0
2018-03-04T04:53:00.767Z,0
2018-03-04T04:54:01.314Z,0
2018-03-04T04:55:01.200Z,0
2018-03-04T04:56:01.161Z,0
2018-03-04T04:57:01.144Z,0
2018-03-04T04:58:01.110Z,0
2018-03-04T04:59:01.070Z,0
2018-03-04T05:00:00.794Z,0
2018-03-04T05:01:01.003Z,0
2018-03-04T05:02:00.977Z,0
2018-03-04T05:03:00.943Z,0
2018-03-04T05:04:00.914Z,0
2018-03-04T05:05:00.892Z,0
2018-03-04T05:06:00.601Z,0
2018-03-04T05:07:00.714Z,0
2018-03-04T05:08:00.790Z,0
2018-03-04T05:09:00.510Z,0
2018-03-04T05:10:00.720Z,0
2018-03-04T05:11:00.690Z,0
2018-03-04T05:12:00.659Z,0
2018-03-04T05:13:00.375Z,0
2018-03-04T05:13:59.850Z,0
2018-03-04T05:15:00.075Z,0
2018-03-04T05:16:00.286Z,0
2018-03-04T05:17:00.254Z,0
2018-03-04T05:18:00.475Z,0
2018-03-04T05:19:00.181Z,0
2018-03-04T05:20:00.418Z,0
2018-03-04T05:21:00.121Z,0
2018-03-04T05:22:00.094Z,0
2018-03-04T05:23:00.061Z,0
2018-03-04T05:23:59.781Z,0
2018-03-04T05:24:59.501Z,0
2018-03-04T05:26:00.211Z,0
2018-03-04T05:26:59.932Z,0
2018-03-04T05:28:00.151Z,0
2018-03-04T05:28:59.870Z,0
2018-03-04T05:30:00.082Z,0
2018-03-04T05:30:59.802Z,0
2018-03-04T05:32:00.026Z,0
2018-03-04T05:32:59.744Z,0
2018-03-04T05:33:59.709Z,0
2018-03-04T05:34:59.678Z,0
2018-03-04T05:35:59.898Z,0
2018-03-04T05:36:59.618Z,0
2018-03-04T05:37:59.582Z,0
2018-03-04T05:38:59.552Z,0
2018-03-04T05:39:59.522Z,4
2018-03-04T05:40:59.740Z,4
2018-03-04T05:41:59.852Z,0
2018-03-04T05:42:59.435Z,4
2018-03-04T05:43:59.398Z,4
2018-03-04T05:44:59.614Z,4
2018-03-04T05:45:59.333Z,4
2018-03-04T05:46:59.551Z,4
2018-03-04T05:47:59.271Z,8
2018-03-04T05:48:59.484Z,8
2018-03-04T05:49:59.457Z,8
2018-03-04T05:50:59.178Z,8
2018-03-04T05:51:59.391Z,12
2018-03-04T05:52:59.372Z,16
2018-03-04T05:53:59.335Z,16
2018-03-04T05:54:59.301Z,20
2018-03-04T05:55:59.267Z,20
2018-03-04T05:56:59.284Z,28
2018-03-04T05:57:59.215Z,32
2018-03-04T05:58:59.177Z,32
2018-03-04T05:59:58.901Z,36
2018-03-04T06:00:59.111Z,40
2018-03-04T06:01:59.092Z,40
2018-03-04T06:02:59.054Z,48
2018-03-04T06:03:59.016Z,48
2018-03-04T06:04:58.998Z,52
2018-03-04T06:05:58.972Z,60
2018-03-04T06:06:58.681Z,64
2018-03-04T06:07:58.914Z,76
2018-03-04T06:08:58.870Z,84
2018-03-04T06:09:58.840Z,96
2018-03-04T06:10:58.809Z,104
2018-03-04T06:11:58.777Z,116
2018-03-04T06:12:58.744Z,116
2018-03-04T06:13:58.725Z,124
2018-03-04T06:14:58.689Z,124
2018-03-04T06:15:58.658Z,132
2018-03-04T06:16:58.619Z,136
2018-03-04T06:17:58.600Z,144
2018-03-04T06:18:58.362Z,152
2018-03-04T06:19:58.295Z,164
2018-03-04T06:20:58.510Z,180
2018-03-04T06:21:58.472Z,196
2018-03-04T06:22:58.197Z,220
2018-03-04T06:23:58.174Z,252
2018-03-04T06:24:58.385Z,288
2018-03-04T06:25:58.357Z,324
2018-03-04T06:26:58.076Z,360
2018-03-04T06:27:58.046Z,388
2018-03-04T06:28:58.258Z,408
2018-03-04T06:29:58.240Z,420
2018-03-04T06:30:57.957Z,436
2018-03-04T06:31:57.926Z,468
2018-03-04T06:32:58.149Z,528
2018-03-04T06:33:58.116Z,592
2018-03-04T06:34:58.091Z,628
2018-03-04T06:35:58.051Z,676
2018-03-04T06:36:57.775Z,756
2018-03-04T06:37:57.758Z,840
2018-03-04T06:38:57.721Z,884
2018-03-04T06:39:57.683Z,892
2018-03-04T06:40:57.911Z,852
2018-03-04T06:41:57.632Z,792
2018-03-04T06:42:57.353Z,800
2018-03-04T06:43:57.576Z,880
2018-03-04T06:44:57.289Z,1000
2018-03-04T06:45:57.507Z,1148
2018-03-04T06:46:57.743Z,1284
2018-03-04T06:47:57.703Z,1320
2018-03-04T06:48:57.425Z,1328
2018-03-04T06:49:57.413Z,1320
2018-03-04T06:50:57.366Z,1336
2018-03-04T06:51:57.333Z,1432
2018-03-04T06:52:57.553Z,1496
2018-03-04T06:53:57.277Z,1464
2018-03-04T06:54:57.490Z,1464
2018-03-04T06:55:57.471Z,1496
2018-03-04T06:56:57.182Z,1548
2018-03-04T06:57:57.461Z,1588
2018-03-04T06:58:57.129Z,1624
2018-03-04T06:59:57.355Z,1664
2018-03-04T07:00:57.068Z,1748
2018-03-04T07:01:56.800Z,1852
2018-03-04T07:02:57.261Z,1944
2018-03-04T07:03:56.990Z,2012
2018-03-04T07:04:57.306Z,2056
2018-03-04T07:05:56.923Z,2100
2018-03-04T07:06:57.179Z,2160
2018-03-04T07:07:56.871Z,2272
2018-03-04T07:08:56.841Z,2444
2018-03-04T07:09:57.062Z,2528
2018-03-04T07:10:56.780Z,2488
2018-03-04T07:11:56.757Z,2444
2018-03-04T07:12:56.969Z,2448
2018-03-04T07:13:56.709Z,2492
2018-03-04T07:14:56.665Z,2560
2018-03-04T07:15:56.638Z,2564
2018-03-04T07:16:56.676Z,2532
2018-03-04T07:17:56.580Z,2496
2018-03-04T07:18:56.559Z,2456
2018-03-04T07:19:56.775Z,2404
2018-03-04T07:20:56.743Z,2376
2018-03-04T07:21:56.715Z,2416
2018-03-04T07:22:56.684Z,2524
2018-03-04T07:23:56.654Z,2616
2018-03-04T07:24:56.380Z,2628
2018-03-04T07:25:56.603Z,2620
2018-03-04T07:26:56.572Z,2680
2018-03-04T07:27:56.541Z,2768
2018-03-04T07:28:56.515Z,2928
2018-03-04T07:29:56.245Z,3140
2018-03-04T07:30:56.211Z,3280
2018-03-04T07:31:56.432Z,3260
2018-03-04T07:32:56.397Z,3216
2018-03-04T07:33:56.375Z,3288
2018-03-04T07:34:56.344Z,3504
2018-03-04T07:35:56.320Z,3768
2018-03-04T07:36:56.284Z,3988
2018-03-04T07:37:56.007Z,4188
2018-03-04T07:38:55.981Z,4316
2018-03-04T07:39:56.203Z,4268
2018-03-04T07:40:56.173Z,4248
2018-03-04T07:41:56.148Z,4356
2018-03-04T07:42:56.117Z,4520
2018-03-04T07:43:57.233Z,4772
2018-03-04T07:44:56.074Z,4852
2018-03-04T07:45:57.180Z,4964
2018-03-04T07:46:56.022Z,5120
2018-03-04T07:47:55.741Z,5076
2018-03-04T07:48:55.951Z,5068
2018-03-04T07:49:55.680Z,5360
2018-03-04T07:50:55.902Z,5832
2018-03-04T07:51:55.628Z,5996
2018-03-04T07:52:55.860Z,5752
2018-03-04T07:53:55.817Z,5636
2018-03-04T07:54:55.831Z,5964
2018-03-04T07:55:55.766Z,6556
2018-03-04T07:56:55.492Z,7148
2018-03-04T07:57:55.709Z,7384
2018-03-04T07:58:55.688Z,7200
2018-03-04T07:59:55.409Z,6892
2018-03-04T08:00:55.381Z,6712
2018-03-04T08:01:55.354Z,6680
2018-03-04T08:02:55.326Z,6912
2018-03-04T08:03:55.310Z,7348
2018-03-04T08:04:55.517Z,7856
2018-03-04T08:05:55.235Z,8212
2018-03-04T08:06:55.208Z,8364
2018-03-04T08:07:55.185Z,8244
2018-03-04T08:08:55.417Z,7960
2018-03-04T08:09:55.375Z,7724
2018-03-04T08:10:55.363Z,7704
2018-03-04T08:11:55.328Z,7824
2018-03-04T08:12:55.300Z,7960
2018-03-04T08:13:55.027Z,8048
2018-03-04T08:14:55.243Z,8112
2018-03-04T08:15:54.976Z,8176
2018-03-04T08:16:54.950Z,8492
2018-03-04T08:17:54.915Z,8932
2018-03-04T08:18:55.150Z,9556
2018-03-04T08:19:54.864Z,10200
2018-03-04T08:20:54.838Z,11052
2018-03-04T08:21:54.810Z,12668
2018-03-04T08:22:55.035Z,15284
2018-03-04T08:23:55.013Z,16352
2018-03-04T08:24:54.736Z,16144
2018-03-04T08:25:54.703Z,15040
2018-03-04T08:26:54.687Z,13644
2018-03-04T08:27:54.651Z,12672
2018-03-04T08:28:54.879Z,12392
2018-03-04T08:29:54.599Z,12524
2018-03-04T08:30:54.586Z,13376
2018-03-04T08:31:54.554Z,13808
2018-03-04T08:32:54.777Z,13476
2018-03-04T08:33:54.745Z,12708
2018-03-04T08:34:54.480Z,12044
2018-03-04T08:35:54.448Z,11680
2018-03-04T08:36:54.679Z,12136
2018-03-04T08:37:54.645Z,12432
2018-03-04T08:38:54.634Z,12728
2018-03-04T08:39:54.354Z,12676
2018-03-04T08:40:54.580Z,12992
2018-03-04T08:41:54.305Z,13480
2018-03-04T08:42:54.279Z,12852
2018-03-04T08:43:54.535Z,13144
2018-03-04T08:44:54.229Z,13120
2018-03-04T08:45:54.487Z,13424
2018-03-04T08:46:54.430Z,14520
2018-03-04T08:47:54.408Z,15176
2018-03-04T08:48:54.380Z,16196
2018-03-04T08:49:54.352Z,15876
2018-03-04T08:50:54.391Z,15784
2018-03-04T08:51:54.062Z,15388
2018-03-04T08:52:54.293Z,14660
2018-03-04T08:53:54.257Z,14444
2018-03-04T08:54:53.982Z,14368
2018-03-04T08:55:53.711Z,14548
2018-03-04T08:56:54.182Z,14696
2018-03-04T08:57:53.913Z,14632
2018-03-04T08:58:54.298Z,14604
2018-03-04T08:59:54.114Z,14856
2018-03-04T09:00:54.187Z,15504
2018-03-04T09:01:53.817Z,15668
2018-03-04T09:02:53.794Z,14872
2018-03-04T09:03:54.020Z,14040
2018-03-04T09:04:53.996Z,12876
2018-03-04T09:05:53.972Z,11664
2018-03-04T09:06:53.696Z,10744
2018-03-04T09:07:53.673Z,9860
2018-03-04T09:08:53.901Z,8588
2018-03-04T09:09:53.874Z,9140
2018-03-04T09:10:53.603Z,8692
2018-03-04T09:11:53.580Z,8516
2018-03-04T09:12:53.549Z,8088
2018-03-04T09:13:53.782Z,7416
2018-03-04T09:14:53.777Z,7480
2018-03-04T09:15:53.735Z,7916
2018-03-04T09:16:53.709Z,8624
2018-03-04T09:17:53.686Z,8768
2018-03-04T09:18:53.656Z,8440
2018-03-04T09:19:53.736Z,8248
2018-03-04T09:20:53.111Z,8104
2018-03-04T09:21:53.585Z,8028
2018-03-04T09:22:53.562Z,7980
2018-03-04T09:23:53.288Z,7980
2018-03-04T09:24:53.512Z,8028
2018-03-04T09:25:53.244Z,8000
2018-03-04T09:26:53.461Z,8056
2018-03-04T09:27:53.437Z,8364
2018-03-04T09:28:53.412Z,8920
2018-03-04T09:29:52.888Z,8560
2018-03-04T09:30:53.116Z,10188
2018-03-04T09:31:53.361Z,11512
2018-03-04T09:32:52.815Z,11868
2018-03-04T09:33:52.789Z,12284
2018-03-04T09:34:53.027Z,12136
2018-03-04T09:35:53.407Z,12972
2018-03-04T09:36:54.070Z,13804
2018-03-04T09:37:53.193Z,12956
2018-03-04T09:38:53.164Z,10844
2018-03-04T09:39:52.907Z,9408
2018-03-04T09:40:53.145Z,8556
2018-03-04T09:41:52.845Z,8108
2018-03-04T09:42:53.067Z,7812
2018-03-04T09:43:53.050Z,7624
2018-03-04T09:44:53.697Z,7456
2018-03-04T09:45:52.991Z,7412
2018-03-04T09:46:52.972Z,7316
2018-03-04T09:47:52.693Z,7324
2018-03-04T09:48:52.673Z,7312
2018-03-04T09:49:52.892Z,7252
2018-03-04T09:50:52.869Z,7172
2018-03-04T09:51:52.854Z,7104
2018-03-04T09:52:52.820Z,7080
2018-03-04T09:53:52.850Z,7116
2018-03-04T09:54:52.518Z,7164
2018-03-04T09:55:52.249Z,7204
2018-03-04T09:56:52.827Z,7200
2018-03-04T09:57:52.450Z,7192
2018-03-04T09:58:52.426Z,7124
2018-03-04T09:59:52.395Z,7180
2018-03-04T10:00:52.373Z,7244
2018-03-04T10:01:52.350Z,7200
2018-03-04T10:02:52.334Z,7236
2018-03-04T10:03:52.052Z,7356
2018-03-04T10:04:52.515Z,7404
2018-03-04T10:05:52.505Z,7396
2018-03-04T10:06:52.222Z,7396
2018-03-04T10:07:52.446Z,7508
2018-03-04T10:08:52.320Z,7736
2018-03-04T10:09:52.400Z,7920
2018-03-04T10:10:52.316Z,8088
2018-03-04T10:11:51.847Z,8280
2018-03-04T10:12:51.824Z,8572
2018-03-04T10:13:52.044Z,8760
2018-03-04T10:14:52.289Z,8856
2018-03-04T10:15:52.000Z,9012
2018-03-04T10:16:51.727Z,8428
2018-03-04T10:17:51.950Z,8836
2018-03-04T10:18:51.925Z,10776
2018-03-04T10:19:52.148Z,11308
2018-03-04T10:20:51.879Z,10852
2018-03-04T10:21:52.103Z,10028
2018-03-04T10:22:52.071Z,10160
2018-03-04T10:23:52.065Z,12156
2018-03-04T10:24:52.021Z,15432
2018-03-04T10:25:51.756Z,18400
2018-03-04T10:26:51.975Z,20320
2018-03-04T10:27:51.951Z,21504
2018-03-04T10:28:51.932Z,21568
2018-03-04T10:29:51.664Z,20960
2018-03-04T10:30:51.880Z,20224
2018-03-04T10:31:51.611Z,19584
2018-03-04T10:32:51.835Z,19552
2018-03-04T10:33:51.813Z,19680
2018-03-04T10:34:51.791Z,20288
2018-03-04T10:35:51.764Z,20736
2018-03-04T10:36:51.740Z,19872
2018-03-04T10:37:51.729Z,18528
2018-03-04T10:38:51.703Z,17072
2018-03-04T10:39:51.458Z,17220
2018-03-04T10:40:51.657Z,18240
2018-03-04T10:41:51.631Z,19104
2018-03-04T10:42:51.361Z,19392
2018-03-04T10:43:51.594Z,19168
2018-03-04T10:44:51.578Z,18752
2018-03-04T10:45:51.301Z,18528
2018-03-04T10:46:51.278Z,16164
2018-03-04T10:47:51.265Z,14084
2018-03-04T10:48:51.263Z,12708
2018-03-04T10:49:51.460Z,12212
2018-03-04T10:50:51.443Z,11852
2018-03-04T10:51:51.430Z,12064
2018-03-04T10:52:51.150Z,13216
2018-03-04T10:53:51.406Z,14576
2018-03-04T10:54:51.391Z,15828
2018-03-04T10:55:51.086Z,16576
2018-03-04T10:56:51.314Z,17208
2018-03-04T10:57:51.044Z,17340
2018-03-04T10:58:51.328Z,17520
2018-03-04T10:59:51.260Z,17704
2018-03-04T11:00:50.986Z,18240
2018-03-04T11:01:51.214Z,18752
2018-03-04T11:02:50.939Z,18976
2018-03-04T11:03:51.170Z,19008
2018-03-04T11:04:51.146Z,18592
2018-03-04T11:05:51.146Z,17608
2018-03-04T11:06:51.112Z,16652
2018-03-04T11:07:51.086Z,15632
2018-03-04T11:08:50.827Z,14320
2018-03-04T11:09:50.964Z,12672
2018-03-04T11:10:51.172Z,11024
2018-03-04T11:11:51.010Z,10216
2018-03-04T11:12:50.989Z,9008
2018-03-04T11:13:50.716Z,8208
2018-03-04T11:14:50.950Z,7672
2018-03-04T11:15:50.681Z,7392
2018-03-04T11:16:50.902Z,7308
2018-03-04T11:17:50.879Z,7300
2018-03-04T11:18:50.358Z,7360
2018-03-04T11:19:50.348Z,7604
2018-03-04T11:20:50.574Z,7924
2018-03-04T11:21:50.551Z,8608
2018-03-04T11:22:50.774Z,8944
2018-03-04T11:23:50.511Z,8952
2018-03-04T11:24:50.482Z,8844
2018-03-04T11:25:50.714Z,8828
2018-03-04T11:26:50.699Z,9132
2018-03-04T11:27:50.270Z,9920
2018-03-04T11:28:50.676Z,10536
2018-03-04T11:29:50.380Z,9996
2018-03-04T11:30:50.358Z,8796
2018-03-04T11:31:50.340Z,8000
2018-03-04T11:32:50.319Z,7468
2018-03-04T11:33:50.535Z,7820
2018-03-04T11:34:50.019Z,9096
2018-03-04T11:35:50.244Z,10680
2018-03-04T11:36:49.977Z,12412
2018-03-04T11:37:49.954Z,13604
2018-03-04T11:38:50.184Z,14588
2018-03-04T11:39:50.404Z,16452
2018-03-04T11:40:50.390Z,18880
2018-03-04T11:41:50.116Z,20608
2018-03-04T11:42:50.425Z,21440
2018-03-04T11:43:50.324Z,20992
2018-03-04T11:44:49.813Z,19232
2018-03-04T11:45:50.035Z,16600
2018-03-04T11:46:50.262Z,14500
2018-03-04T11:47:50.245Z,11784
2018-03-04T11:48:49.974Z,10004
2018-03-04T11:49:50.216Z,8904
2018-03-04T11:50:49.928Z,8240
2018-03-04T11:51:49.920Z,7812
2018-03-04T11:52:49.892Z,7564
2018-03-04T11:53:49.871Z,7476
2018-03-04T11:54:49.854Z,7608
2018-03-04T11:55:50.027Z,8144
2018-03-04T11:56:49.812Z,8552
2018-03-04T11:57:49.789Z,8380
2018-03-04T11:58:49.871Z,7952
2018-03-04T11:59:49.501Z,7452
2018-03-04T12:00:49.479Z,7080
2018-03-04T12:01:49.704Z,6876
2018-03-04T12:02:49.933Z,6780
2018-03-04T12:03:49.918Z,6784
2018-03-04T12:04:49.656Z,6800
2018-03-04T12:05:49.623Z,6776
2018-03-04T12:06:49.417Z,6776
2018-03-04T12:07:49.833Z,6604
2018-03-04T12:08:49.814Z,6556
2018-03-04T12:09:49.592Z,6760
2018-03-04T12:10:49.536Z,6760
2018-03-04T12:11:49.754Z,6748
2018-03-04T12:12:49.741Z,6684
2018-03-04T12:13:52.051Z,6644
2018-03-04T12:14:50.594Z,6640
2018-03-04T12:15:49.679Z,6620
2018-03-04T12:16:49.408Z,6540
2018-03-04T12:17:49.626Z,6448
2018-03-04T12:18:49.351Z,6416
2018-03-04T12:19:49.086Z,6432
2018-03-04T12:20:49.558Z,6420
2018-03-04T12:21:49.541Z,6440
2018-03-04T12:22:49.517Z,6492
2018-03-04T12:23:49.510Z,6552
2018-03-04T12:24:49.484Z,6512
2018-03-04T12:25:49.206Z,6476
2018-03-04T12:26:49.440Z,6576
2018-03-04T12:27:49.418Z,6680
2018-03-04T12:28:48.889Z,6672
2018-03-04T12:29:49.405Z,6776
2018-03-04T12:30:49.114Z,6744
2018-03-04T12:31:49.083Z,6676
2018-03-04T12:32:48.807Z,6660
2018-03-04T12:33:49.283Z,6648
2018-03-04T12:34:49.261Z,6632
2018-03-04T12:35:49.236Z,6656
2018-03-04T12:36:49.318Z,6700
2018-03-04T12:37:48.693Z,6708
2018-03-04T12:38:48.927Z,6716
2018-03-04T12:39:49.154Z,6720
2018-03-04T12:40:48.876Z,6684
2018-03-04T12:41:48.861Z,6696
2018-03-04T12:42:49.083Z,6728
2018-03-04T12:43:49.063Z,6756
2018-03-04T12:44:49.042Z,6760
2018-03-04T12:45:48.775Z,6744
2018-03-04T12:46:48.996Z,6756
2018-03-04T12:47:48.972Z,6776
2018-03-04T12:48:48.706Z,6776
2018-03-04T12:49:48.972Z,6784
2018-03-04T12:50:48.659Z,6792
2018-03-04T12:51:48.884Z,6780
2018-03-04T12:52:48.866Z,6724
2018-03-04T12:53:48.843Z,6680
2018-03-04T12:54:48.822Z,6664
2018-03-04T12:55:48.966Z,6660
2018-03-04T12:56:48.775Z,6668
2018-03-04T12:57:48.775Z,6672
2018-03-04T12:58:48.593Z,6664
2018-03-04T12:59:48.717Z,6680
2018-03-04T13:00:48.191Z,6704
2018-03-04T13:01:48.664Z,6728
2018-03-04T13:02:48.697Z,6756
2018-03-04T13:03:48.372Z,6752
2018-03-04T13:04:48.353Z,6724
2018-03-04T13:05:48.583Z,6728
2018-03-04T13:06:48.322Z,6732
2018-03-04T13:07:48.535Z,6768
2018-03-04T13:08:48.510Z,6808
2018-03-04T13:09:48.238Z,6836
2018-03-04T13:10:48.468Z,6860
2018-03-04T13:11:48.447Z,6896
2018-03-04T13:12:48.435Z,6900
2018-03-04T13:13:48.405Z,6948
2018-03-04T13:14:48.475Z,7000
2018-03-04T13:15:48.363Z,7028
2018-03-04T13:16:48.350Z,6988
2018-03-04T13:17:48.073Z,6928
2018-03-04T13:18:47.800Z,6900
2018-03-04T13:19:48.284Z,6892
2018-03-04T13:20:48.254Z,6876
2018-03-04T13:21:48.240Z,6844
2018-03-04T13:22:47.966Z,6804
2018-03-04T13:23:48.195Z,6736
2018-03-04T13:24:47.925Z,6672
2018-03-04T13:25:48.150Z,6660
2018-03-04T13:26:47.881Z,6604
2018-03-04T13:27:48.106Z,6540
2018-03-04T13:28:48.205Z,6468
2018-03-04T13:29:47.818Z,6428
2018-03-04T13:30:48.045Z,6452
2018-03-04T13:31:47.768Z,6492
2018-03-04T13:32:48.004Z,6488
2018-03-04T13:33:47.764Z,6500
2018-03-04T13:34:47.721Z,6520
2018-03-04T13:35:47.948Z,6512
2018-03-04T13:36:47.935Z,6496
2018-03-04T13:37:47.401Z,6476
2018-03-04T13:38:47.876Z,6452
2018-03-04T13:39:47.866Z,6464
2018-03-04T13:40:47.889Z,6468
2018-03-04T13:41:47.828Z,6476
2018-03-04T13:42:47.798Z,6460
2018-03-04T13:43:47.776Z,6472
2018-03-04T13:44:47.503Z,6448
2018-03-04T13:45:47.488Z,6512
2018-03-04T13:46:47.219Z,6648
2018-03-04T13:47:47.454Z,6724
2018-03-04T13:48:47.429Z,6800
2018-03-04T13:49:47.407Z,6852
2018-03-04T13:50:47.634Z,6876